sensor_id;sensor_type;location;lat;lon;timestamp;pressure;altitude;pressure_sealevel;temperature;humidity
10712;BME280;5407;51.234;6.804;2023-02-17T00:01:50;101555.75;;;23.96;36.74
10712;BME280;5407;51.234;6.804;2023-02-17T00:04:17;101558.53;;;23.96;36.68
10712;BME280;5407;51.234;6.804;2023-02-17T00:06:44;101562.03;;;23.97;36.72
10712;BME280;5407;51.234;6.804;2023-02-17T00:09:11;101560.09;;;23.97;36.73
10712;BME280;5407;51.234;6.804;2023-02-17T00:11:37;101557.31;;;23.97;36.87
10712;BME280;5407;51.234;6.804;2023-02-17T00:14:06;101554.56;;;23.97;36.75
10712;BME280;5407;51.234;6.804;2023-02-17T00:16:33;101556.53;;;23.97;36.77
10712;BME280;5407;51.234;6.804;2023-02-17T00:19:01;101551.81;;;23.97;36.64
10712;BME280;5407;51.234;6.804;2023-02-17T00:21:48;101546.28;;;23.97;36.86
10712;BME280;5407;51.234;6.804;2023-02-17T00:24:15;101550.25;;;23.96;37.02
10712;BME280;5407;51.234;6.804;2023-02-17T00:26:42;101552.56;;;23.98;36.76
10712;BME280;5407;51.234;6.804;2023-02-17T00:29:11;101550.25;;;23.96;36.74
10712;BME280;5407;51.234;6.804;2023-02-17T00:31:38;101562.84;;;23.97;36.78
10712;BME280;5407;51.234;6.804;2023-02-17T00:34:05;101551.81;;;23.97;36.82
10712;BME280;5407;51.234;6.804;2023-02-17T00:36:32;101549.06;;;23.97;36.94
10712;BME280;5407;51.234;6.804;2023-02-17T00:38:59;101546.28;;;23.97;36.94
10712;BME280;5407;51.234;6.804;2023-02-17T00:41:27;101549.44;;;23.96;36.92
10712;BME280;5407;51.234;6.804;2023-02-17T00:43:56;101549.44;;;23.96;36.99
10712;BME280;5407;51.234;6.804;2023-02-17T00:46:25;101548.25;;;23.97;36.72
10712;BME280;5407;51.234;6.804;2023-02-17T00:48:53;101549.00;;;24.01;36.65
10712;BME280;5407;51.234;6.804;2023-02-17T00:51:20;101542.34;;;23.98;36.61
10712;BME280;5407;51.234;6.804;2023-02-17T00:53:47;101544.72;;;23.96;36.92
10712;BME280;5407;51.234;6.804;2023-02-17T00:56:14;101546.28;;;23.97;36.85
10712;BME280;5407;51.234;6.804;2023-02-17T00:58:42;101541.53;;;24.01;36.70
10712;BME280;5407;51.234;6.804;2023-02-17T01:01:10;101540.69;;;24.04;36.49
10712;BME280;5407;51.234;6.804;2023-02-17T01:03:40;101533.56;;;24.07;36.85
10712;BME280;5407;51.234;6.804;2023-02-17T01:06:09;101536.31;;;24.07;37.00
10712;BME280;5407;51.234;6.804;2023-02-17T01:08:36;101539.06;;;24.10;36.83
10712;BME280;5407;51.234;6.804;2023-02-17T01:11:03;101529.59;;;24.11;36.88
10712;BME280;5407;51.234;6.804;2023-02-17T01:13:30;101530.81;;;24.07;36.80
10712;BME280;5407;51.234;6.804;2023-02-17T01:15:58;101529.66;;;24.04;37.08
10712;BME280;5407;51.234;6.804;2023-02-17T01:18:25;101523.38;;;24.04;36.83
10712;BME280;5407;51.234;6.804;2023-02-17T01:20:53;101518.28;;;24.02;37.02
10712;BME280;5407;51.234;6.804;2023-02-17T01:23:20;101516.72;;;24.01;36.99
10712;BME280;5407;51.234;6.804;2023-02-17T01:25:47;101516.34;;;23.99;37.01
10712;BME280;5407;51.234;6.804;2023-02-17T01:28:18;101499.81;;;23.99;36.96
10712;BME280;5407;51.234;6.804;2023-02-17T01:30:45;101513.59;;;23.99;37.09
10712;BME280;5407;51.234;6.804;2023-02-17T01:33:12;101508.06;;;23.99;36.92
10712;BME280;5407;51.234;6.804;2023-02-17T01:35:39;101506.50;;;23.98;37.12
10712;BME280;5407;51.234;6.804;2023-02-17T01:38:07;101506.50;;;23.98;37.08
10712;BME280;5407;51.234;6.804;2023-02-17T01:40:34;101501.00;;;23.98;36.97
10712;BME280;5407;51.234;6.804;2023-02-17T01:43:01;101500.63;;;23.96;37.17
10712;BME280;5407;51.234;6.804;2023-02-17T01:45:35;101498.25;;;23.98;37.15
10712;BME280;5407;51.234;6.804;2023-02-17T01:48:05;101495.88;;;23.97;37.26
10712;BME280;5407;51.234;6.804;2023-02-17T01:50:37;101490.34;;;24.00;37.17
10712;BME280;5407;51.234;6.804;2023-02-17T01:53:07;101496.59;;;24.04;37.04
10712;BME280;5407;51.234;6.804;2023-02-17T01:55:36;101488.69;;;24.06;37.02
10712;BME280;5407;51.234;6.804;2023-02-17T01:58:06;101481.25;;;24.03;37.08
10712;BME280;5407;51.234;6.804;2023-02-17T02:00:35;101487.94;;;24.02;37.39
10712;BME280;5407;51.234;6.804;2023-02-17T02:03:03;101478.13;;;24.01;37.25
10712;BME280;5407;51.234;6.804;2023-02-17T02:05:33;101477.75;;;23.99;37.41
10712;BME280;5407;51.234;6.804;2023-02-17T02:08:00;101467.94;;;23.98;37.37
10712;BME280;5407;51.234;6.804;2023-02-17T02:10:33;101459.66;;;23.98;37.40
10712;BME280;5407;51.234;6.804;2023-02-17T02:13:04;101467.13;;;23.98;37.42
10712;BME280;5407;51.234;6.804;2023-02-17T02:15:34;101463.59;;;23.97;37.59
10712;BME280;5407;51.234;6.804;2023-02-17T02:18:19;101464.81;;;23.96;37.49
10712;BME280;5407;51.234;6.804;2023-02-17T02:21:12;101459.66;;;23.98;37.40
10712;BME280;5407;51.234;6.804;2023-02-17T02:23:53;101466.34;;;23.97;37.49
10712;BME280;5407;51.234;6.804;2023-02-17T02:27:02;101467.50;;;24.00;37.44
10712;BME280;5407;51.234;6.804;2023-02-17T02:32:48;101459.66;;;23.98;37.55
10712;BME280;5407;51.234;6.804;2023-02-17T02:35:21;101463.59;;;23.97;37.42
10712;BME280;5407;51.234;6.804;2023-02-17T02:37:56;101463.59;;;23.97;37.41
10712;BME280;5407;51.234;6.804;2023-02-17T02:40:30;101456.53;;;23.96;37.48
10712;BME280;5407;51.234;6.804;2023-02-17T02:43:03;101458.09;;;23.97;37.51
10712;BME280;5407;51.234;6.804;2023-02-17T02:45:30;101452.56;;;23.97;37.35
10712;BME280;5407;51.234;6.804;2023-02-17T02:48:00;101453.78;;;23.96;37.43
10712;BME280;5407;51.234;6.804;2023-02-17T02:50:40;101454.53;;;23.97;37.45
10712;BME280;5407;51.234;6.804;2023-02-17T02:53:26;101442.75;;;23.96;37.49
10712;BME280;5407;51.234;6.804;2023-02-17T02:56:04;101436.03;;;23.97;37.32
10712;BME280;5407;51.234;6.804;2023-02-17T02:58:39;101441.56;;;23.97;37.51
10712;BME280;5407;51.234;6.804;2023-02-17T03:01:15;101436.81;;;23.98;37.52
10712;BME280;5407;51.234;6.804;2023-02-17T03:03:48;101426.22;;;23.96;37.46
10712;BME280;5407;51.234;6.804;2023-02-17T03:06:25;101426.22;;;23.96;37.44
10712;BME280;5407;51.234;6.804;2023-02-17T03:08:59;101426.22;;;23.96;37.47
10712;BME280;5407;51.234;6.804;2023-02-17T03:11:27;101424.66;;;23.95;37.39
10712;BME280;5407;51.234;6.804;2023-02-17T03:14:02;101427.78;;;23.97;37.31
10712;BME280;5407;51.234;6.804;2023-02-17T03:16:30;101414.72;;;24.01;37.31
10712;BME280;5407;51.234;6.804;2023-02-17T03:18:58;101424.91;;;24.04;37.17
10712;BME280;5407;51.234;6.804;2023-02-17T03:21:32;101414.25;;;24.06;37.07
10712;BME280;5407;51.234;6.804;2023-02-17T03:24:00;101420.22;;;24.01;37.41
10712;BME280;5407;51.234;6.804;2023-02-17T03:26:27;101427.31;;;24.02;37.30
10712;BME280;5407;51.234;6.804;2023-02-17T03:28:55;101426.09;;;24.03;37.39
10712;BME280;5407;51.234;6.804;2023-02-17T03:31:22;101419.41;;;24.04;37.07
10712;BME280;5407;51.234;6.804;2023-02-17T03:33:49;101419.41;;;24.04;37.06
10712;BME280;5407;51.234;6.804;2023-02-17T03:36:17;101419.41;;;24.04;37.28
10712;BME280;5407;51.234;6.804;2023-02-17T03:38:45;101415.09;;;24.03;37.20
10712;BME280;5407;51.234;6.804;2023-02-17T03:41:11;101421.38;;;24.04;37.21
10712;BME280;5407;51.234;6.804;2023-02-17T03:43:38;101415.09;;;24.03;37.32
10712;BME280;5407;51.234;6.804;2023-02-17T03:46:09;101415.09;;;24.03;37.09
10712;BME280;5407;51.234;6.804;2023-02-17T03:48:36;101419.03;;;24.02;37.31
10712;BME280;5407;51.234;6.804;2023-02-17T03:51:10;101420.22;;;24.01;37.33
10712;BME280;5407;51.234;6.804;2023-02-17T03:53:39;101421.00;;;24.02;37.39
10712;BME280;5407;51.234;6.804;2023-02-17T03:56:06;101418.66;;;24.00;37.32
10712;BME280;5407;51.234;6.804;2023-02-17T03:58:33;101425.75;;;24.01;37.40
10712;BME280;5407;51.234;6.804;2023-02-17T04:01:00;101423.81;;;23.98;37.44
10712;BME280;5407;51.234;6.804;2023-02-17T04:03:27;101429.69;;;24.00;37.42
10712;BME280;5407;51.234;6.804;2023-02-17T04:05:54;101415.53;;;23.98;37.32
10712;BME280;5407;51.234;6.804;2023-02-17T04:08:20;101420.25;;;23.98;37.50
10712;BME280;5407;51.234;6.804;2023-02-17T04:10:51;101421.06;;;23.98;37.50
10712;BME280;5407;51.234;6.804;2023-02-17T04:13:18;101425.00;;;23.97;37.40
10712;BME280;5407;51.234;6.804;2023-02-17T04:15:45;101421.81;;;23.99;37.41
10712;BME280;5407;51.234;6.804;2023-02-17T04:18:12;101419.50;;;23.97;37.46
10712;BME280;5407;51.234;6.804;2023-02-17T04:20:39;101425.00;;;23.97;37.19
10712;BME280;5407;51.234;6.804;2023-02-17T04:23:06;101429.72;;;23.97;37.36
10712;BME280;5407;51.234;6.804;2023-02-17T04:25:33;101431.34;;;23.94;37.56
10712;BME280;5407;51.234;6.804;2023-02-17T04:28:02;101432.13;;;23.95;37.19
10712;BME280;5407;51.234;6.804;2023-02-17T04:30:30;101438.44;;;23.95;37.41
10712;BME280;5407;51.234;6.804;2023-02-17T04:32:57;101432.13;;;23.95;37.32
10712;BME280;5407;51.234;6.804;2023-02-17T04:35:24;101428.59;;;23.94;37.42
10712;BME280;5407;51.234;6.804;2023-02-17T04:37:51;101423.09;;;23.94;37.35
10712;BME280;5407;51.234;6.804;2023-02-17T04:40:18;101431.34;;;23.94;37.36
10712;BME280;5407;51.234;6.804;2023-02-17T04:42:45;101424.28;;;23.93;37.44
10712;BME280;5407;51.234;6.804;2023-02-17T04:45:14;101419.97;;;23.92;37.43
10712;BME280;5407;51.234;6.804;2023-02-17T04:47:40;101432.56;;;23.93;37.46
10712;BME280;5407;51.234;6.804;2023-02-17T04:50:09;101421.16;;;23.91;37.52
10712;BME280;5407;51.234;6.804;2023-02-17T04:52:35;101419.97;;;23.92;37.41
10712;BME280;5407;51.234;6.804;2023-02-17T04:55:03;101415.66;;;23.91;37.49
10712;BME280;5407;51.234;6.804;2023-02-17T04:57:30;101418.41;;;23.91;37.51
10712;BME280;5407;51.234;6.804;2023-02-17T04:59:57;101419.97;;;23.92;37.41
10712;BME280;5407;51.234;6.804;2023-02-17T05:02:26;101417.97;;;23.93;37.37
10712;BME280;5407;51.234;6.804;2023-02-17T05:04:53;101421.16;;;23.91;37.36
10712;BME280;5407;51.234;6.804;2023-02-17T05:07:20;101426.66;;;23.91;37.28
10712;BME280;5407;51.234;6.804;2023-02-17T05:09:47;101421.16;;;23.91;37.44
10712;BME280;5407;51.234;6.804;2023-02-17T05:12:14;101425.09;;;23.90;37.23
10712;BME280;5407;51.234;6.804;2023-02-17T05:14:41;101433.75;;;23.92;37.42
10712;BME280;5407;51.234;6.804;2023-02-17T05:17:08;101425.88;;;23.91;37.39
10712;BME280;5407;51.234;6.804;2023-02-17T05:19:36;101423.91;;;23.91;37.32
10712;BME280;5407;51.234;6.804;2023-02-17T05:22:03;101415.66;;;23.91;37.41
10712;BME280;5407;51.234;6.804;2023-02-17T05:24:30;101414.84;;;23.91;37.28
10712;BME280;5407;51.234;6.804;2023-02-17T05:26:57;101404.63;;;23.91;37.34
10712;BME280;5407;51.234;6.804;2023-02-17T05:29:24;101405.81;;;23.90;37.44
10712;BME280;5407;51.234;6.804;2023-02-17T05:31:51;101401.06;;;23.91;37.43
10712;BME280;5407;51.234;6.804;2023-02-17T05:34:18;101403.06;;;23.90;37.43
10712;BME280;5407;51.234;6.804;2023-02-17T05:36:46;101410.13;;;23.91;37.44
10712;BME280;5407;51.234;6.804;2023-02-17T05:39:12;101404.63;;;23.91;37.56
10712;BME280;5407;51.234;6.804;2023-02-17T05:41:39;101403.81;;;23.91;37.62
10712;BME280;5407;51.234;6.804;2023-02-17T05:44:06;101403.06;;;23.90;37.50
10712;BME280;5407;51.234;6.804;2023-02-17T05:46:33;101401.50;;;23.89;37.56
10712;BME280;5407;51.234;6.804;2023-02-17T05:49:00;101397.53;;;23.90;37.54
10712;BME280;5407;51.234;6.804;2023-02-17T05:51:27;101394.41;;;23.88;37.74
10712;BME280;5407;51.234;6.804;2023-02-17T05:53:55;101398.75;;;23.89;37.58
10712;BME280;5407;51.234;6.804;2023-02-17T05:56:22;101394.81;;;23.87;37.68
10712;BME280;5407;51.234;6.804;2023-02-17T05:58:48;101401.09;;;23.87;37.75
10712;BME280;5407;51.234;6.804;2023-02-17T06:01:15;101402.31;;;23.86;37.75
10712;BME280;5407;51.234;6.804;2023-02-17T06:03:42;101403.09;;;23.87;37.67
10712;BME280;5407;51.234;6.804;2023-02-17T06:06:09;101413.31;;;23.86;37.75
10712;BME280;5407;51.234;6.804;2023-02-17T06:08:36;101407.81;;;23.86;37.93
10712;BME280;5407;51.234;6.804;2023-02-17T06:11:04;101417.28;;;23.85;37.79
10712;BME280;5407;51.234;6.804;2023-02-17T06:13:31;101414.88;;;23.87;37.85
10712;BME280;5407;51.234;6.804;2023-02-17T06:15:58;101392.84;;;23.87;37.71
10712;BME280;5407;51.234;6.804;2023-02-17T06:18:25;101391.28;;;23.86;37.62
10712;BME280;5407;51.234;6.804;2023-02-17T06:20:54;101387.31;;;23.87;37.64
10712;BME280;5407;51.234;6.804;2023-02-17T06:23:21;101390.09;;;23.87;37.63
10712;BME280;5407;51.234;6.804;2023-02-17T06:25:48;101395.59;;;23.87;37.79
10712;BME280;5407;51.234;6.804;2023-02-17T06:28:16;101387.75;;;23.86;37.80
10712;BME280;5407;51.234;6.804;2023-02-17T06:30:43;101390.50;;;23.86;37.79
10712;BME280;5407;51.234;6.804;2023-02-17T06:33:10;101393.63;;;23.88;37.79
10712;BME280;5407;51.234;6.804;2023-02-17T06:35:37;101388.53;;;23.86;37.69
10712;BME280;5407;51.234;6.804;2023-02-17T06:38:04;101394.41;;;23.88;37.60
10712;BME280;5407;51.234;6.804;2023-02-17T06:40:31;101396.38;;;23.88;37.66
10712;BME280;5407;51.234;6.804;2023-02-17T06:42:58;101399.91;;;23.88;37.69
10712;BME280;5407;51.234;6.804;2023-02-17T06:45:26;101402.25;;;23.90;37.72
10712;BME280;5407;51.234;6.804;2023-02-17T06:47:53;101398.31;;;23.91;37.82
10712;BME280;5407;51.234;6.804;2023-02-17T06:50:20;101403.38;;;23.96;37.48
10712;BME280;5407;51.234;6.804;2023-02-17T06:52:47;101405.25;;;24.02;37.40
10712;BME280;5407;51.234;6.804;2023-02-17T06:55:14;101398.94;;;24.02;37.58
10712;BME280;5407;51.234;6.804;2023-02-17T06:57:41;101399.38;;;24.00;37.61
10712;BME280;5407;51.234;6.804;2023-02-17T07:00:08;101393.53;;;23.95;37.69
10712;BME280;5407;51.234;6.804;2023-02-17T07:02:38;101395.91;;;23.93;37.83
10712;BME280;5407;51.234;6.804;2023-02-17T07:05:05;101403.06;;;23.90;37.74
10712;BME280;5407;51.234;6.804;2023-02-17T07:07:32;101402.66;;;23.88;37.79
10712;BME280;5407;51.234;6.804;2023-02-17T07:09:59;101386.56;;;23.87;37.92
10712;BME280;5407;51.234;6.804;2023-02-17T07:12:28;101389.72;;;23.85;37.93
10712;BME280;5407;51.234;6.804;2023-02-17T07:14:55;101381.88;;;23.84;37.89
10712;BME280;5407;51.234;6.804;2023-02-17T07:17:22;101390.53;;;23.82;38.04
10712;BME280;5407;51.234;6.804;2023-02-17T07:19:50;101391.34;;;23.79;38.37
10712;BME280;5407;51.234;6.804;2023-02-17T07:22:17;101383.47;;;23.81;40.15
10712;BME280;5407;51.234;6.804;2023-02-17T07:24:43;101389.78;;;23.82;41.45
10712;BME280;5407;51.234;6.804;2023-02-17T07:27:10;101392.06;;;23.87;42.09
10712;BME280;5407;51.234;6.804;2023-02-17T07:29:37;101397.94;;;23.89;40.15
10712;BME280;5407;51.234;6.804;2023-02-17T07:32:04;101406.91;;;23.96;41.53
10712;BME280;5407;51.234;6.804;2023-02-17T07:34:31;101395.78;;;24.03;41.92
10712;BME280;5407;51.234;6.804;2023-02-17T07:36:59;101411.06;;;24.08;42.00
10712;BME280;5407;51.234;6.804;2023-02-17T07:39:26;101400.41;;;24.10;41.69
10712;BME280;5407;51.234;6.804;2023-02-17T07:41:52;101406.28;;;24.12;41.65
10712;BME280;5407;51.234;6.804;2023-02-17T07:44:25;101405.13;;;24.13;41.83
10712;BME280;5407;51.234;6.804;2023-02-17T07:46:51;101401.94;;;24.14;41.64
10712;BME280;5407;51.234;6.804;2023-02-17T07:49:18;101410.63;;;24.13;41.84
10712;BME280;5407;51.234;6.804;2023-02-17T07:51:45;101402.75;;;24.11;41.16
10712;BME280;5407;51.234;6.804;2023-02-17T07:54:13;101400.84;;;24.08;41.22
10712;BME280;5407;51.234;6.804;2023-02-17T07:56:40;101410.69;;;24.06;41.67
10712;BME280;5407;51.234;6.804;2023-02-17T07:59:07;101407.59;;;24.04;41.71
10712;BME280;5407;51.234;6.804;2023-02-17T08:01:34;101421.00;;;24.02;41.25
10712;BME280;5407;51.234;6.804;2023-02-17T08:04:01;101409.22;;;24.01;41.42
10712;BME280;5407;51.234;6.804;2023-02-17T08:06:28;101409.97;;;24.02;41.56
10712;BME280;5407;51.234;6.804;2023-02-17T08:08:55;101409.94;;;24.05;40.69
10712;BME280;5407;51.234;6.804;2023-02-17T08:11:42;101411.50;;;24.06;40.39
10712;BME280;5407;51.234;6.804;2023-02-17T08:14:23;101404.00;;;24.07;40.60
10712;BME280;5407;51.234;6.804;2023-02-17T08:16:51;101404.78;;;24.07;40.28
10712;BME280;5407;51.234;6.804;2023-02-17T08:19:18;101407.53;;;24.07;40.49
10712;BME280;5407;51.234;6.804;2023-02-17T08:21:45;101413.47;;;24.06;40.66
10712;BME280;5407;51.234;6.804;2023-02-17T08:24:13;101417.41;;;24.05;41.01
10712;BME280;5407;51.234;6.804;2023-02-17T08:26:42;101414.72;;;24.01;41.18
10712;BME280;5407;51.234;6.804;2023-02-17T08:29:09;101410.88;;;23.95;41.32
10712;BME280;5407;51.234;6.804;2023-02-17T08:31:36;101412.44;;;23.96;41.09
10712;BME280;5407;51.234;6.804;2023-02-17T08:34:05;101405.38;;;23.92;41.06
10712;BME280;5407;51.234;6.804;2023-02-17T08:36:32;101401.50;;;23.89;41.06
10712;BME280;5407;51.234;6.804;2023-02-17T08:38:59;101401.09;;;23.87;41.02
10712;BME280;5407;51.234;6.804;2023-02-17T08:41:28;101404.69;;;23.84;40.93
10712;BME280;5407;51.234;6.804;2023-02-17T08:43:58;101403.13;;;23.83;40.94
10712;BME280;5407;51.234;6.804;2023-02-17T08:46:26;101402.75;;;23.81;41.00
10712;BME280;5407;51.234;6.804;2023-02-17T08:48:53;101410.25;;;23.81;41.09
10712;BME280;5407;51.234;6.804;2023-02-17T08:51:23;101396.84;;;23.79;41.01
10712;BME280;5407;51.234;6.804;2023-02-17T08:53:51;101389.00;;;23.78;41.05
10712;BME280;5407;51.234;6.804;2023-02-17T08:56:19;101399.25;;;23.77;41.01
10712;BME280;5407;51.234;6.804;2023-02-17T08:58:46;101392.16;;;23.76;40.92
10712;BME280;5407;51.234;6.804;2023-02-17T09:01:15;101404.03;;;23.73;40.80
10712;BME280;5407;51.234;6.804;2023-02-17T09:03:43;101393.78;;;23.74;40.77
10712;BME280;5407;51.234;6.804;2023-02-17T09:06:11;101398.50;;;23.73;40.77
10712;BME280;5407;51.234;6.804;2023-02-17T09:08:40;101396.19;;;23.72;40.72
10712;BME280;5407;51.234;6.804;2023-02-17T09:11:08;101395.38;;;23.72;40.76
10712;BME280;5407;51.234;6.804;2023-02-17T09:13:35;101393.81;;;23.71;40.56
10712;BME280;5407;51.234;6.804;2023-02-17T09:16:03;101395.38;;;23.72;40.43
10712;BME280;5407;51.234;6.804;2023-02-17T09:18:31;101388.75;;;23.69;40.57
10712;BME280;5407;51.234;6.804;2023-02-17T09:20:58;101392.25;;;23.70;40.48
10712;BME280;5407;51.234;6.804;2023-02-17T09:23:27;101402.53;;;23.69;40.44
10712;BME280;5407;51.234;6.804;2023-02-17T09:26:00;101403.66;;;23.72;40.46
10712;BME280;5407;51.234;6.804;2023-02-17T09:28:28;101409.59;;;23.70;40.30
10712;BME280;5407;51.234;6.804;2023-02-17T09:30:55;101411.97;;;23.68;40.34
10712;BME280;5407;51.234;6.804;2023-02-17T09:33:22;101416.69;;;23.68;40.41
10712;BME280;5407;51.234;6.804;2023-02-17T09:35:51;101412.75;;;23.69;40.35
10712;BME280;5407;51.234;6.804;2023-02-17T09:38:18;101418.25;;;23.69;40.26
10712;BME280;5407;51.234;6.804;2023-02-17T09:40:47;101416.69;;;23.68;40.24
10712;BME280;5407;51.234;6.804;2023-02-17T09:43:17;101418.25;;;23.69;40.35
10712;BME280;5407;51.234;6.804;2023-02-17T09:45:48;101418.69;;;23.67;40.00
10712;BME280;5407;51.234;6.804;2023-02-17T09:48:18;101412.38;;;23.67;40.17
10712;BME280;5407;51.234;6.804;2023-02-17T09:50:54;101419.06;;;23.66;40.20
10712;BME280;5407;51.234;6.804;2023-02-17T09:53:26;101419.06;;;23.66;40.27
10712;BME280;5407;51.234;6.804;2023-02-17T09:55:57;101418.28;;;23.65;40.19
10712;BME280;5407;51.234;6.804;2023-02-17T09:58:27;101425.78;;;23.65;40.19
10712;BME280;5407;51.234;6.804;2023-02-17T10:01:00;101416.72;;;23.64;40.15
10712;BME280;5407;51.234;6.804;2023-02-17T10:03:31;101428.16;;;23.63;40.28
10712;BME280;5407;51.234;6.804;2023-02-17T10:06:09;101436.44;;;23.63;40.23
10712;BME280;5407;51.234;6.804;2023-02-17T10:08:41;101442.72;;;23.63;40.24
10712;BME280;5407;51.234;6.804;2023-02-17T10:11:18;101437.19;;;23.63;40.17
10712;BME280;5407;51.234;6.804;2023-02-17T10:13:48;101436.44;;;23.63;40.20
10712;BME280;5407;51.234;6.804;2023-02-17T10:16:20;101441.94;;;23.63;40.17
10712;BME280;5407;51.234;6.804;2023-02-17T10:18:53;101436.44;;;23.63;40.06
10712;BME280;5407;51.234;6.804;2023-02-17T10:21:26;101431.31;;;23.61;40.14
10712;BME280;5407;51.234;6.804;2023-02-17T10:23:54;101417.19;;;23.59;40.15
10712;BME280;5407;51.234;6.804;2023-02-17T10:26:35;101426.22;;;23.60;40.11
10712;BME280;5407;51.234;6.804;2023-02-17T10:29:13;101437.25;;;23.60;40.11
10712;BME280;5407;51.234;6.804;2023-02-17T10:31:46;101431.75;;;23.60;40.10
10712;BME280;5407;51.234;6.804;2023-02-17T10:34:23;101429.38;;;23.58;40.14
10712;BME280;5407;51.234;6.804;2023-02-17T10:36:56;101429.38;;;23.58;40.16
10712;BME280;5407;51.234;6.804;2023-02-17T10:39:38;101430.19;;;23.59;40.22
10712;BME280;5407;51.234;6.804;2023-02-17T10:42:13;101441.97;;;23.59;40.15
10712;BME280;5407;51.234;6.804;2023-02-17T10:44:43;101436.88;;;23.58;40.15
10712;BME280;5407;51.234;6.804;2023-02-17T10:47:10;101443.16;;;23.58;40.14
10712;BME280;5407;51.234;6.804;2023-02-17T10:49:41;101441.97;;;23.59;40.15
10712;BME280;5407;51.234;6.804;2023-02-17T10:52:13;101445.16;;;23.58;40.26
10712;BME280;5407;51.234;6.804;2023-02-17T10:54:44;101431.75;;;23.60;40.02
10712;BME280;5407;51.234;6.804;2023-02-17T10:57:14;101422.69;;;23.59;40.08
10712;BME280;5407;51.234;6.804;2023-02-17T10:59:43;101415.22;;;23.60;39.97
10712;BME280;5407;51.234;6.804;2023-02-17T11:02:17;101409.72;;;23.60;39.92
10712;BME280;5407;51.234;6.804;2023-02-17T11:04:46;101421.50;;;23.60;39.96
10712;BME280;5407;51.234;6.804;2023-02-17T11:07:17;101422.69;;;23.59;40.10
10712;BME280;5407;51.234;6.804;2023-02-17T11:09:46;101423.13;;;23.58;40.09
10712;BME280;5407;51.234;6.804;2023-02-17T11:12:17;101427.00;;;23.60;39.97
10712;BME280;5407;51.234;6.804;2023-02-17T11:14:49;101417.97;;;23.60;39.98
10712;BME280;5407;51.234;6.804;2023-02-17T11:17:23;101416.41;;;23.59;40.04
10712;BME280;5407;51.234;6.804;2023-02-17T11:19:57;101415.97;;;23.60;39.92
10712;BME280;5407;51.234;6.804;2023-02-17T11:22:34;101409.72;;;23.60;39.94
10712;BME280;5407;51.234;6.804;2023-02-17T11:25:04;101412.47;;;23.60;40.00
10712;BME280;5407;51.234;6.804;2023-02-17T11:27:32;101400.25;;;23.61;39.89
10712;BME280;5407;51.234;6.804;2023-02-17T11:30:14;101392.00;;;23.61;39.91
10712;BME280;5407;51.234;6.804;2023-02-17T11:32:43;101390.06;;;23.58;40.02
10712;BME280;5407;51.234;6.804;2023-02-17T11:35:21;101389.63;;;23.59;40.16
10712;BME280;5407;51.234;6.804;2023-02-17T11:37:51;101383.00;;;23.57;39.95
10712;BME280;5407;51.234;6.804;2023-02-17T11:40:23;101385.31;;;23.58;39.85
10712;BME280;5407;51.234;6.804;2023-02-17T11:42:55;101369.63;;;23.55;39.97
10712;BME280;5407;51.234;6.804;2023-02-17T11:45:22;101377.03;;;23.58;39.86
10712;BME280;5407;51.234;6.804;2023-02-17T11:48:01;101383.00;;;23.57;40.02
10712;BME280;5407;51.234;6.804;2023-02-17T11:50:34;101392.81;;;23.58;40.00
10712;BME280;5407;51.234;6.804;2023-02-17T11:53:17;101403.84;;;23.58;39.95
10712;BME280;5407;51.234;6.804;2023-02-17T11:55:53;101384.53;;;23.58;39.84
10712;BME280;5407;51.234;6.804;2023-02-17T11:58:32;101393.22;;;23.56;39.85
10712;BME280;5407;51.234;6.804;2023-02-17T12:01:10;101399.50;;;23.57;39.93
10712;BME280;5407;51.234;6.804;2023-02-17T12:03:50;101419.56;;;23.57;39.90
10712;BME280;5407;51.234;6.804;2023-02-17T12:06:32;101393.56;;;23.58;39.75
10712;BME280;5407;51.234;6.804;2023-02-17T12:09:09;101390.06;;;23.58;39.70
10712;BME280;5407;51.234;6.804;2023-02-17T12:11:44;101381.78;;;23.58;39.79
10712;BME280;5407;51.234;6.804;2023-02-17T12:14:30;101364.06;;;23.59;39.78
10712;BME280;5407;51.234;6.804;2023-02-17T12:17:04;101361.31;;;23.59;39.72
10712;BME280;5407;51.234;6.804;2023-02-17T12:19:40;101359.75;;;23.58;39.88
10712;BME280;5407;51.234;6.804;2023-02-17T12:22:16;101350.69;;;23.57;39.81
10712;BME280;5407;51.234;6.804;2023-02-17T12:24:56;101353.81;;;23.59;39.82
10712;BME280;5407;51.234;6.804;2023-02-17T12:27:33;101356.56;;;23.59;39.72
10712;BME280;5407;51.234;6.804;2023-02-17T12:30:22;101362.50;;;23.58;39.73
10712;BME280;5407;51.234;6.804;2023-02-17T12:35:50;101357.00;;;23.58;39.71
10712;BME280;5407;51.234;6.804;2023-02-17T12:38:24;101353.06;;;23.59;39.68
10712;BME280;5407;51.234;6.804;2023-02-17T12:40:56;101352.69;;;23.57;39.86
10712;BME280;5407;51.234;6.804;2023-02-17T12:43:26;101359.75;;;23.58;39.71
10712;BME280;5407;51.234;6.804;2023-02-17T12:45:58;101364.06;;;23.59;39.74
10712;BME280;5407;51.234;6.804;2023-02-17T12:48:32;101369.59;;;23.59;39.80
10712;BME280;5407;51.234;6.804;2023-02-17T12:51:05;101349.94;;;23.57;39.65
10712;BME280;5407;51.234;6.804;2023-02-17T12:53:41;101336.53;;;23.59;39.64
10712;BME280;5407;51.234;6.804;2023-02-17T12:59:31;101340.84;;;23.60;39.64
10712;BME280;5407;51.234;6.804;2023-02-17T13:02:01;101340.47;;;23.58;39.61
10712;BME280;5407;51.234;6.804;2023-02-17T13:04:30;101340.03;;;23.59;39.59
10712;BME280;5407;51.234;6.804;2023-02-17T13:07:18;101343.97;;;23.62;39.48
10712;BME280;5407;51.234;6.804;2023-02-17T13:09:47;101358.94;;;23.61;39.66
10712;BME280;5407;51.234;6.804;2023-02-17T13:12:34;101349.03;;;23.63;39.70
10712;BME280;5407;51.234;6.804;2023-02-17T13:15:04;101349.88;;;23.60;39.59
10712;BME280;5407;51.234;6.804;2023-02-17T13:17:36;101358.56;;;23.59;39.73
10712;BME280;5407;51.234;6.804;2023-02-17T13:20:25;101352.22;;;23.62;39.49
10712;BME280;5407;51.234;6.804;2023-02-17T13:23:06;101364.44;;;23.61;39.67
10712;BME280;5407;51.234;6.804;2023-02-17T13:25:34;101367.19;;;23.61;39.53